createdAt,value
2019-04-28T00:00:27.506Z,22.10
2019-04-28T00:01:27.016Z,22.05
2019-04-28T00:02:26.999Z,22.05
2019-04-28T00:03:26.984Z,22.09
2019-04-28T00:04:26.963Z,22.09
2019-04-28T00:05:27.480Z,22.02
2019-04-28T00:06:26.991Z,22.06
2019-04-28T00:07:26.950Z,22.14
2019-04-28T00:08:26.920Z,22.09
2019-04-28T00:09:26.909Z,22.07
2019-04-28T00:10:26.901Z,22.10
2019-04-28T00:11:26.901Z,22.06
2019-04-28T00:12:27.490Z,22.00
2019-04-28T00:13:26.888Z,22.09
2019-04-28T00:14:26.862Z,22.07
2019-04-28T00:15:26.858Z,22.10
2019-04-28T00:16:26.859Z,22.02
2019-04-28T00:17:27.494Z,22.09
2019-04-28T00:18:26.814Z,22.07
2019-04-28T00:19:26.804Z,22.09
2019-04-28T00:20:26.790Z,22.07
2019-04-28T00:21:26.789Z,22.05
2019-04-28T00:22:26.792Z,22.06
2019-04-28T00:23:26.774Z,22.00
2019-04-28T00:24:26.755Z,22.06
2019-04-28T00:25:26.764Z,21.98
2019-04-28T00:26:26.996Z,22.05
2019-04-28T00:27:27.503Z,22.06
2019-04-28T00:28:26.701Z,22.10
2019-04-28T00:29:37.633Z,22.06
2019-04-28T00:30:26.679Z,22.09
2019-04-28T00:31:26.677Z,22.05
2019-04-28T00:32:26.677Z,21.98
2019-04-28T00:33:26.648Z,22.05
2019-04-28T00:34:26.635Z,21.99
2019-04-28T00:35:27.496Z,22.10
2019-04-28T00:36:27.006Z,22.02
2019-04-28T00:37:26.620Z,22.10
2019-04-28T00:38:26.595Z,22.03
2019-04-28T00:39:26.587Z,22.05
2019-04-28T00:40:26.573Z,22.09
2019-04-28T00:41:26.581Z,22.06
2019-04-28T00:42:26.569Z,22.03
2019-04-28T00:43:26.550Z,22.00
2019-04-28T00:44:26.532Z,22.03
2019-04-28T00:45:26.523Z,22.02
2019-04-28T00:46:26.507Z,22.03
2019-04-28T00:47:26.522Z,21.96
2019-04-28T00:48:26.490Z,22.03
2019-04-28T00:49:26.478Z,22.02
2019-04-28T00:50:26.490Z,21.99
2019-04-28T00:51:26.458Z,22.03
2019-04-28T00:52:26.497Z,21.99
2019-04-28T00:53:26.436Z,22.02
2019-04-28T00:54:26.423Z,22.07
2019-04-28T00:55:26.412Z,21.98
2019-04-28T00:56:26.403Z,22.09
2019-04-28T00:57:26.413Z,22.00
2019-04-28T00:58:26.396Z,22.05
2019-04-28T00:59:26.984Z,22.07
2019-04-28T01:00:26.359Z,22.05
2019-04-28T01:01:26.361Z,21.99
2019-04-28T01:02:26.347Z,22.05
2019-04-28T01:03:26.998Z,21.99
2019-04-28T01:04:26.311Z,21.98
2019-04-28T01:05:26.993Z,22.06
2019-04-28T01:06:26.290Z,21.96
2019-04-28T01:07:26.298Z,22.03
2019-04-28T01:08:26.302Z,22.02
2019-04-28T01:09:26.260Z,21.98
2019-04-28T01:10:26.250Z,22.00
2019-04-28T01:11:26.240Z,21.92
2019-04-28T01:12:26.499Z,21.98
2019-04-28T01:13:26.233Z,21.98
2019-04-28T01:14:26.221Z,22.05
2019-04-28T01:15:26.200Z,21.98
2019-04-28T01:16:26.189Z,21.99
2019-04-28T01:17:26.187Z,21.92
2019-04-28T01:18:26.178Z,21.91
2019-04-28T01:19:26.159Z,22.09
2019-04-28T01:20:26.143Z,21.92
2019-04-28T01:21:26.985Z,21.92
2019-04-28T01:22:26.139Z,21.91
2019-04-28T01:23:26.126Z,21.96
2019-04-28T01:24:26.986Z,22.00
2019-04-28T01:25:26.086Z,21.99
2019-04-28T01:26:26.090Z,21.96
2019-04-28T01:27:26.092Z,21.90
2019-04-28T01:28:27.002Z,22.02
2019-04-28T01:29:26.044Z,21.92
2019-04-28T01:30:26.030Z,21.96
2019-04-28T01:31:26.020Z,22.03
2019-04-28T01:32:26.022Z,22.09
2019-04-28T01:33:26.024Z,21.98
2019-04-28T01:34:26.014Z,21.94
2019-04-28T01:35:25.986Z,21.98
2019-04-28T01:36:25.973Z,21.91
2019-04-28T01:37:25.955Z,21.94
2019-04-28T01:38:26.029Z,22.03
2019-04-28T01:39:25.965Z,22.02
2019-04-28T01:40:25.925Z,21.96
2019-04-28T01:41:25.914Z,21.96
2019-04-28T01:42:26.492Z,21.88
2019-04-28T01:43:25.909Z,21.99
2019-04-28T01:44:26.504Z,21.96
2019-04-28T01:45:25.881Z,21.94
2019-04-28T01:46:25.858Z,22.00
2019-04-28T01:47:26.489Z,21.98
2019-04-28T01:48:26.007Z,21.90
2019-04-28T01:49:26.499Z,22.00
2019-04-28T01:50:25.817Z,21.98
2019-04-28T01:51:25.801Z,21.90
2019-04-28T01:52:26.486Z,21.92
2019-04-28T01:53:25.789Z,21.90
2019-04-28T01:54:26.501Z,21.90
2019-04-28T01:55:25.759Z,21.90
2019-04-28T01:56:25.755Z,21.99
2019-04-28T01:57:25.743Z,21.94
2019-04-28T01:58:25.739Z,21.88
2019-04-28T01:59:25.726Z,22.02
2019-04-28T02:00:25.749Z,21.91
2019-04-28T02:01:25.707Z,22.00
2019-04-28T02:02:25.680Z,21.94
2019-04-28T02:03:25.713Z,21.86
2019-04-28T02:04:25.661Z,21.91
2019-04-28T02:05:25.651Z,21.90
2019-04-28T02:06:25.639Z,21.98
2019-04-28T02:07:25.627Z,21.94
2019-04-28T02:08:25.641Z,21.90
2019-04-28T02:09:25.610Z,21.86
2019-04-28T02:10:25.600Z,21.90
2019-04-28T02:11:25.602Z,21.90
2019-04-28T02:12:25.587Z,21.86
2019-04-28T02:13:25.597Z,21.86
2019-04-28T02:14:26.499Z,21.94
2019-04-28T02:15:25.545Z,21.92
2019-04-28T02:16:25.532Z,21.98
2019-04-28T02:17:26.501Z,21.90
2019-04-28T02:18:25.530Z,21.92
2019-04-28T02:19:25.520Z,21.90
2019-04-28T02:20:25.486Z,22.00
2019-04-28T02:21:25.475Z,21.92
2019-04-28T02:22:25.464Z,21.94
2019-04-28T02:23:25.470Z,21.92
2019-04-28T02:24:26.005Z,21.98
2019-04-28T02:25:25.440Z,21.98
2019-04-28T02:26:25.442Z,21.92
2019-04-28T02:27:25.417Z,21.86
2019-04-28T02:28:25.513Z,21.98
2019-04-28T02:29:25.536Z,21.88
2019-04-28T02:30:41.016Z,21.91
2019-04-28T02:31:25.367Z,21.90
2019-04-28T02:32:25.372Z,21.96
2019-04-28T02:33:25.346Z,21.91
2019-04-28T02:34:25.353Z,21.96
2019-04-28T02:35:25.342Z,21.94
2019-04-28T02:36:25.992Z,21.94
2019-04-28T02:37:25.311Z,21.96
2019-04-28T02:38:25.301Z,21.84
2019-04-28T02:39:25.366Z,21.91
2019-04-28T02:40:25.289Z,21.91
2019-04-28T02:41:25.264Z,21.91
2019-04-28T02:42:25.253Z,21.82
2019-04-28T02:43:25.252Z,21.99
2019-04-28T02:44:25.242Z,21.86
2019-04-28T02:45:25.233Z,21.94
2019-04-28T02:46:25.218Z,21.92
2019-04-28T02:47:25.994Z,21.83
2019-04-28T02:48:25.183Z,21.88
2019-04-28T02:49:25.506Z,21.88
2019-04-28T02:50:25.187Z,21.90
2019-04-28T02:51:25.992Z,21.86
2019-04-28T02:52:25.988Z,21.84
2019-04-28T02:53:25.135Z,21.96
2019-04-28T02:54:25.127Z,21.90
2019-04-28T02:55:25.125Z,21.88
2019-04-28T02:56:25.116Z,21.91
2019-04-28T02:57:25.990Z,21.91
2019-04-28T02:58:25.090Z,21.86
2019-04-28T02:59:25.072Z,21.79
2019-04-28T03:00:25.091Z,21.83
2019-04-28T03:01:26.662Z,21.84
2019-04-28T03:02:25.033Z,21.86
2019-04-28T03:03:25.994Z,21.86
2019-04-28T03:04:25.032Z,21.83
2019-04-28T03:05:25.018Z,21.79
2019-04-28T03:06:25.499Z,21.86
2019-04-28T03:07:24.987Z,21.82
2019-04-28T03:08:24.966Z,21.86
2019-04-28T03:09:25.499Z,21.86
2019-04-28T03:10:25.025Z,21.83
2019-04-28T03:11:24.957Z,21.83
2019-04-28T03:12:24.921Z,21.84
2019-04-28T03:13:24.911Z,21.86
2019-04-28T03:14:25.494Z,21.90
2019-04-28T03:15:24.924Z,21.82
2019-04-28T03:16:24.879Z,21.90
2019-04-28T03:17:24.871Z,21.83
2019-04-28T03:18:24.865Z,21.83
2019-04-28T03:19:24.853Z,21.82
2019-04-28T03:20:24.866Z,21.80
2019-04-28T03:21:24.829Z,21.80
2019-04-28T03:22:24.812Z,21.84
2019-04-28T03:23:24.810Z,21.80
2019-04-28T03:24:24.804Z,21.80
2019-04-28T03:25:25.026Z,21.82
2019-04-28T03:26:24.858Z,21.86
2019-04-28T03:27:24.760Z,21.86
2019-04-28T03:28:24.752Z,21.80
2019-04-28T03:29:24.740Z,21.80
2019-04-28T03:30:24.764Z,21.88
2019-04-28T03:31:55.193Z,21.82
2019-04-28T03:32:36.626Z,21.90
2019-04-28T03:33:26.200Z,21.88
2019-04-28T03:34:24.684Z,21.80
2019-04-28T03:35:25.042Z,21.79
2019-04-28T03:36:24.684Z,21.83
2019-04-28T03:37:24.688Z,21.82
2019-04-28T03:38:24.636Z,21.77
2019-04-28T03:39:24.635Z,21.77
2019-04-28T03:40:24.630Z,21.82
2019-04-28T03:41:24.619Z,21.80
2019-04-28T03:42:24.590Z,21.82
2019-04-28T03:43:24.599Z,21.82
2019-04-28T03:44:24.602Z,21.88
2019-04-28T03:45:24.577Z,21.86
2019-04-28T03:46:24.575Z,21.86
2019-04-28T03:47:24.554Z,21.77
2019-04-28T03:48:24.533Z,21.83
2019-04-28T03:49:24.539Z,21.82
2019-04-28T03:50:24.522Z,21.80
2019-04-28T03:51:24.509Z,21.79
2019-04-28T03:52:24.492Z,21.80
2019-04-28T03:53:24.472Z,21.79
2019-04-28T03:54:24.471Z,21.84
2019-04-28T03:55:24.491Z,21.84
2019-04-28T03:56:24.455Z,21.82
2019-04-28T03:57:24.455Z,21.83
2019-04-28T03:58:24.519Z,21.80
2019-04-28T03:59:24.999Z,21.79
2019-04-28T04:00:24.422Z,21.79
2019-04-28T04:01:24.413Z,21.82
2019-04-28T04:02:24.393Z,21.80
2019-04-28T04:03:24.370Z,21.79
2019-04-28T04:04:24.355Z,21.80
2019-04-28T04:05:24.365Z,21.80
2019-04-28T04:06:24.349Z,21.82
2019-04-28T04:07:24.328Z,21.80
2019-04-28T04:08:24.325Z,21.82
2019-04-28T04:09:24.335Z,21.83
2019-04-28T04:10:24.512Z,21.80
2019-04-28T04:11:24.311Z,21.75
2019-04-28T04:12:24.269Z,21.80
2019-04-28T04:13:24.255Z,21.82
2019-04-28T04:14:24.245Z,21.75
2019-04-28T04:15:24.307Z,21.86
2019-04-28T04:16:25.012Z,21.86
2019-04-28T04:17:24.217Z,21.80
2019-04-28T04:18:24.210Z,21.77
2019-04-28T04:19:24.209Z,21.90
2019-04-28T04:20:25.003Z,21.83
2019-04-28T04:21:24.202Z,21.80
2019-04-28T04:22:25.004Z,21.82
2019-04-28T04:23:24.148Z,21.75
2019-04-28T04:24:24.153Z,21.79
2019-04-28T04:25:24.124Z,21.79
2019-04-28T04:26:24.160Z,21.79
2019-04-28T04:27:24.106Z,21.80
2019-04-28T04:28:24.099Z,21.75
2019-04-28T04:29:24.087Z,21.75
2019-04-28T04:30:25.011Z,21.79
2019-04-28T04:31:24.084Z,21.83
2019-04-28T04:32:27.178Z,21.79
2019-04-28T04:33:24.048Z,21.75
2019-04-28T04:34:24.038Z,21.83
2019-04-28T04:35:25.006Z,21.75
2019-04-28T04:36:24.048Z,21.69
2019-04-28T04:37:24.007Z,21.71
2019-04-28T04:38:23.989Z,21.80
2019-04-28T04:39:23.981Z,21.80
2019-04-28T04:40:23.970Z,21.82
2019-04-28T04:41:23.969Z,21.69
2019-04-28T04:42:23.971Z,21.83
2019-04-28T04:43:24.509Z,21.82
2019-04-28T04:44:23.936Z,21.75
2019-04-28T04:45:24.543Z,21.72
2019-04-28T04:46:23.926Z,21.88
2019-04-28T04:47:24.521Z,21.77
2019-04-28T04:48:23.890Z,21.82
2019-04-28T04:49:23.877Z,21.77
2019-04-28T04:50:24.520Z,21.69
2019-04-28T04:51:23.856Z,21.82
2019-04-28T04:52:23.859Z,21.77
2019-04-28T04:53:23.824Z,21.68
2019-04-28T04:54:23.815Z,21.68
2019-04-28T04:55:23.797Z,21.75
2019-04-28T04:56:24.027Z,21.79
2019-04-28T04:57:24.520Z,21.80
2019-04-28T04:58:23.782Z,21.72
2019-04-28T04:59:23.768Z,21.69
2019-04-28T05:00:23.751Z,21.71
2019-04-28T05:01:24.032Z,21.80
2019-04-28T05:02:29.336Z,21.69
2019-04-28T05:03:23.712Z,21.77
2019-04-28T05:04:23.698Z,21.82
2019-04-28T05:05:23.689Z,21.75
2019-04-28T05:06:24.012Z,21.71
2019-04-28T05:07:23.667Z,21.80
2019-04-28T05:08:23.658Z,21.69
2019-04-28T05:09:23.646Z,21.69
2019-04-28T05:10:23.635Z,21.77
2019-04-28T05:11:23.632Z,21.79
2019-04-28T05:12:24.017Z,21.79
2019-04-28T05:13:23.615Z,21.72
2019-04-28T05:14:23.600Z,21.80
2019-04-28T05:15:23.581Z,21.75
2019-04-28T05:16:23.570Z,21.69
2019-04-28T05:17:23.567Z,21.75
2019-04-28T05:18:23.552Z,21.71
2019-04-28T05:19:23.540Z,21.80
2019-04-28T05:20:23.528Z,21.71
2019-04-28T05:21:23.514Z,21.79
2019-04-28T05:22:23.516Z,21.80
2019-04-28T05:23:23.491Z,21.84
2019-04-28T05:24:24.000Z,21.75
2019-04-28T05:25:24.525Z,21.69
2019-04-28T05:26:23.457Z,21.82
2019-04-28T05:27:25.591Z,21.79
2019-04-28T05:28:24.001Z,21.72
2019-04-28T05:29:26.959Z,21.72
2019-04-28T05:30:23.415Z,21.72
2019-04-28T05:31:24.390Z,21.79
2019-04-28T05:32:23.425Z,21.72
2019-04-28T05:33:30.250Z,21.71
2019-04-28T05:34:24.305Z,21.69
2019-04-28T05:35:25.107Z,21.75
2019-04-28T05:36:23.352Z,21.79
2019-04-28T05:37:23.371Z,21.77
2019-04-28T05:38:23.332Z,21.82
2019-04-28T05:39:23.318Z,21.72
2019-04-28T05:40:23.308Z,21.72
2019-04-28T05:41:23.306Z,21.77
2019-04-28T05:42:23.320Z,21.74
2019-04-28T05:43:23.277Z,21.79
2019-04-28T05:44:23.265Z,21.68
2019-04-28T05:45:23.253Z,21.69
2019-04-28T05:46:23.251Z,21.68
2019-04-28T05:47:23.269Z,21.80
2019-04-28T05:48:23.223Z,21.67
2019-04-28T05:49:23.211Z,21.82
2019-04-28T05:50:24.003Z,21.77
2019-04-28T05:51:24.007Z,21.77
2019-04-28T05:52:23.203Z,21.74
2019-04-28T05:53:23.190Z,21.68
2019-04-28T05:54:23.163Z,21.72
2019-04-28T05:55:23.155Z,21.69
2019-04-28T05:56:23.139Z,21.79
2019-04-28T05:57:23.141Z,21.77
2019-04-28T05:58:23.167Z,21.68
2019-04-28T05:59:23.103Z,21.74
2019-04-28T06:00:23.094Z,21.69
2019-04-28T06:01:24.004Z,21.83
2019-04-28T06:02:23.362Z,21.82
2019-04-28T06:03:23.083Z,21.79
2019-04-28T06:04:23.062Z,21.83
2019-04-28T06:05:24.006Z,21.72
2019-04-28T06:06:23.028Z,21.75
2019-04-28T06:07:24.003Z,21.68
2019-04-28T06:08:23.032Z,21.69
2019-04-28T06:09:23.010Z,21.86
2019-04-28T06:10:23.503Z,21.71
2019-04-28T06:11:23.011Z,21.83
2019-04-28T06:12:22.962Z,21.77
2019-04-28T06:13:23.036Z,21.82
2019-04-28T06:14:23.503Z,21.79
2019-04-28T06:15:22.939Z,21.71
2019-04-28T06:16:23.507Z,21.83
2019-04-28T06:17:22.908Z,21.77
2019-04-28T06:18:22.907Z,21.75
2019-04-28T06:19:22.889Z,21.71
2019-04-28T06:20:22.894Z,21.74
2019-04-28T06:21:22.872Z,21.75
2019-04-28T06:22:22.856Z,21.72
2019-04-28T06:23:22.856Z,21.69
2019-04-28T06:24:22.831Z,21.72
2019-04-28T06:25:22.821Z,21.82
2019-04-28T06:26:22.827Z,21.80
2019-04-28T06:27:23.517Z,21.69
2019-04-28T06:28:22.810Z,21.75
2019-04-28T06:29:22.779Z,21.84
2019-04-28T06:30:22.777Z,21.68
2019-04-28T06:31:22.766Z,21.83
2019-04-28T06:32:22.746Z,21.72
2019-04-28T06:33:22.766Z,21.80
2019-04-28T06:34:22.723Z,21.74
2019-04-28T06:35:22.714Z,21.68
2019-04-28T06:36:23.513Z,21.69
2019-04-28T06:37:23.513Z,21.80
2019-04-28T06:38:22.704Z,21.83
2019-04-28T06:39:22.683Z,21.68
2019-04-28T06:40:22.659Z,21.75
2019-04-28T06:41:22.657Z,21.82
2019-04-28T06:42:23.517Z,21.79
2019-04-28T06:43:23.049Z,21.74
2019-04-28T06:44:22.645Z,21.79
2019-04-28T06:45:22.610Z,21.68
2019-04-28T06:46:22.595Z,21.71
2019-04-28T06:47:22.586Z,21.83
2019-04-28T06:48:23.039Z,21.88
2019-04-28T06:49:22.559Z,21.83
2019-04-28T06:50:22.564Z,21.68
2019-04-28T06:51:22.539Z,21.83
2019-04-28T06:52:23.509Z,21.79
2019-04-28T06:53:22.542Z,21.79
2019-04-28T06:54:22.510Z,21.74
2019-04-28T06:55:22.499Z,21.83
2019-04-28T06:56:22.513Z,21.64
2019-04-28T06:57:22.475Z,21.82
2019-04-28T06:58:22.527Z,21.75
2019-04-28T06:59:22.452Z,21.74
2019-04-28T07:00:22.443Z,21.82
2019-04-28T07:01:22.442Z,21.75
2019-04-28T07:02:22.417Z,21.75
2019-04-28T07:03:23.184Z,21.74
2019-04-28T07:04:22.422Z,21.75
2019-04-28T07:05:23.009Z,21.77
2019-04-28T07:06:23.008Z,21.75
2019-04-28T07:07:22.366Z,21.80
2019-04-28T07:08:22.359Z,21.75
2019-04-28T07:09:22.628Z,21.74
2019-04-28T07:10:22.358Z,21.82
2019-04-28T07:11:23.015Z,21.88
2019-04-28T07:12:22.321Z,21.77
2019-04-28T07:13:22.307Z,21.83
2019-04-28T07:14:22.354Z,21.82
2019-04-28T07:15:23.008Z,21.80
2019-04-28T07:16:22.271Z,21.77
2019-04-28T07:17:23.011Z,21.86
2019-04-28T07:18:23.005Z,21.74
2019-04-28T07:19:22.283Z,21.77
2019-04-28T07:20:22.226Z,21.88
2019-04-28T07:21:22.212Z,21.69
2019-04-28T07:22:22.201Z,21.80
2019-04-28T07:23:23.011Z,21.75
2019-04-28T07:24:22.200Z,21.77
2019-04-28T07:25:22.184Z,21.86
2019-04-28T07:26:22.158Z,21.77
2019-04-28T07:27:22.154Z,21.84
2019-04-28T07:28:23.008Z,21.83
2019-04-28T07:29:22.171Z,21.79
2019-04-28T07:30:22.125Z,21.77
2019-04-28T07:31:22.109Z,21.84
2019-04-28T07:32:22.092Z,21.83
2019-04-28T07:33:35.257Z,21.79
2019-04-28T07:34:22.103Z,21.80
2019-04-28T07:35:22.058Z,21.80
2019-04-28T07:36:22.065Z,21.83
2019-04-28T07:37:22.051Z,21.79
2019-04-28T07:38:23.010Z,21.71
2019-04-28T07:39:22.041Z,21.74
2019-04-28T07:40:22.007Z,21.82
2019-04-28T07:41:22.018Z,21.83
2019-04-28T07:42:22.002Z,21.82
2019-04-28T07:43:21.973Z,21.83
2019-04-28T07:44:21.972Z,21.82
2019-04-28T07:45:21.954Z,21.75
2019-04-28T07:46:21.942Z,21.82
2019-04-28T07:47:21.939Z,21.77
2019-04-28T07:48:21.920Z,21.80
2019-04-28T07:49:21.920Z,21.82
2019-04-28T07:50:21.897Z,21.83
2019-04-28T07:51:21.884Z,21.77
2019-04-28T07:52:22.521Z,21.79
2019-04-28T07:53:21.876Z,21.79
2019-04-28T07:54:21.900Z,21.80
2019-04-28T07:55:21.858Z,21.83
2019-04-28T07:56:21.841Z,21.82
2019-04-28T07:57:24.142Z,21.83
2019-04-28T07:58:22.538Z,21.79
2019-04-28T07:59:21.847Z,21.82
2019-04-28T08:00:21.787Z,21.80
2019-04-28T08:01:21.775Z,21.79
2019-04-28T08:02:21.763Z,21.79
2019-04-28T08:03:21.762Z,21.82
2019-04-28T08:04:21.783Z,21.82
2019-04-28T08:05:21.736Z,21.83
2019-04-28T08:06:21.731Z,21.82
2019-04-28T08:07:21.714Z,21.79
2019-04-28T08:08:22.515Z,21.83
2019-04-28T08:09:21.734Z,21.75
2019-04-28T08:10:21.731Z,21.80
2019-04-28T08:11:21.667Z,21.77
2019-04-28T08:12:21.658Z,21.77
2019-04-28T08:13:22.510Z,21.80
2019-04-28T08:14:21.666Z,21.80
2019-04-28T08:15:22.031Z,21.79
2019-04-28T08:16:21.612Z,21.79
2019-04-28T08:17:21.606Z,21.86
2019-04-28T08:18:22.514Z,21.79
2019-04-28T08:19:21.622Z,21.80
2019-04-28T08:20:22.026Z,21.83
2019-04-28T08:21:21.557Z,21.79
2019-04-28T08:22:21.585Z,21.79
2019-04-28T08:23:21.535Z,21.88
2019-04-28T08:24:21.528Z,21.82
2019-04-28T08:25:22.037Z,21.80
2019-04-28T08:26:21.514Z,21.80
2019-04-28T08:27:21.521Z,21.82
2019-04-28T08:28:21.486Z,21.80
2019-04-28T08:29:21.541Z,21.79
2019-04-28T08:30:21.470Z,21.80
2019-04-28T08:31:21.450Z,21.80
2019-04-28T08:32:22.013Z,21.84
2019-04-28T08:33:21.434Z,21.86
2019-04-28T08:34:21.423Z,21.80
2019-04-28T08:35:21.432Z,21.82
2019-04-28T08:36:21.394Z,21.88
2019-04-28T08:37:22.015Z,21.84
2019-04-28T08:38:21.385Z,21.84
2019-04-28T08:39:24.087Z,21.80
2019-04-28T08:40:21.381Z,21.83
2019-04-28T08:41:21.339Z,21.83
2019-04-28T08:42:21.329Z,21.86
2019-04-28T08:43:21.320Z,21.84
2019-04-28T08:44:21.310Z,21.83
2019-04-28T08:45:21.332Z,21.88
2019-04-28T08:46:22.013Z,21.83
2019-04-28T08:47:21.280Z,21.96
2019-04-28T08:48:21.263Z,21.83
2019-04-28T08:49:22.027Z,21.96
2019-04-28T08:50:21.269Z,21.82
2019-04-28T08:51:21.231Z,21.94
2019-04-28T08:52:21.225Z,21.90
2019-04-28T08:53:21.213Z,21.91
2019-04-28T08:54:22.018Z,21.88
2019-04-28T08:55:21.209Z,21.90
2019-04-28T08:56:21.177Z,21.90
2019-04-28T08:57:21.169Z,21.86
2019-04-28T08:58:21.156Z,21.90
2019-04-28T08:59:22.014Z,21.92
2019-04-28T09:00:21.563Z,21.88
2019-04-28T09:01:21.142Z,22.00
2019-04-28T09:02:21.115Z,21.88
2019-04-28T09:03:21.101Z,22.03
2019-04-28T09:04:21.095Z,21.88
2019-04-28T09:05:21.539Z,21.86
2019-04-28T09:06:21.069Z,22.00
2019-04-28T09:07:21.061Z,22.00
2019-04-28T09:08:21.048Z,22.02
2019-04-28T09:09:21.033Z,22.02
2019-04-28T09:10:21.045Z,21.94
2019-04-28T09:11:21.027Z,21.94
2019-04-28T09:12:21.016Z,21.94
2019-04-28T09:13:21.015Z,22.02
2019-04-28T09:14:20.986Z,21.96
2019-04-28T09:15:20.994Z,21.98
2019-04-28T09:16:20.966Z,22.06
2019-04-28T09:17:20.948Z,21.90
2019-04-28T09:18:20.962Z,21.90
2019-04-28T09:19:21.520Z,22.06
2019-04-28T09:20:20.940Z,21.96
2019-04-28T09:21:20.918Z,21.99
2019-04-28T09:22:20.888Z,21.96
2019-04-28T09:23:20.888Z,22.05
2019-04-28T09:24:21.513Z,21.98
2019-04-28T09:25:20.861Z,22.05
2019-04-28T09:26:20.879Z,21.92
2019-04-28T09:27:20.842Z,22.00
2019-04-28T09:28:20.829Z,21.94
2019-04-28T09:29:21.552Z,21.98
2019-04-28T09:30:21.537Z,22.02
2019-04-28T09:31:21.043Z,21.96
2019-04-28T09:32:20.782Z,22.09
2019-04-28T09:33:20.771Z,22.00
2019-04-28T09:34:28.088Z,22.07
2019-04-28T09:35:20.773Z,22.10
2019-04-28T09:36:20.767Z,21.94
2019-04-28T09:37:20.785Z,22.05
2019-04-28T09:38:20.718Z,22.03
2019-04-28T09:39:23.404Z,22.03
2019-04-28T09:40:20.712Z,22.03
2019-04-28T09:41:20.716Z,22.07
2019-04-28T09:42:20.674Z,22.05
2019-04-28T09:43:20.663Z,22.10
2019-04-28T09:44:20.653Z,22.05
2019-04-28T09:45:20.640Z,22.05
2019-04-28T09:46:20.659Z,22.02
2019-04-28T09:47:20.638Z,22.07
2019-04-28T09:48:20.611Z,22.00
2019-04-28T09:49:20.598Z,22.07
2019-04-28T09:50:20.587Z,22.09
2019-04-28T09:51:21.059Z,22.12
2019-04-28T09:52:20.585Z,22.06
2019-04-28T09:53:20.595Z,22.09
2019-04-28T09:54:20.542Z,22.09
2019-04-28T09:55:20.538Z,22.07
2019-04-28T09:56:20.580Z,22.09
2019-04-28T09:57:21.037Z,22.12
2019-04-28T09:58:20.510Z,22.06
2019-04-28T09:59:21.024Z,22.10
2019-04-28T10:00:20.570Z,22.06
2019-04-28T10:01:20.547Z,22.06
2019-04-28T10:02:21.022Z,22.06
2019-04-28T10:03:21.019Z,22.05
2019-04-28T10:04:20.456Z,22.12
2019-04-28T10:05:20.424Z,22.12
2019-04-28T10:06:20.476Z,22.10
2019-04-28T10:07:20.404Z,22.17
2019-04-28T10:08:20.395Z,22.15
2019-04-28T10:09:20.378Z,22.17
2019-04-28T10:10:20.372Z,22.22
2019-04-28T10:11:30.371Z,22.28
2019-04-28T10:12:26.901Z,22.24
2019-04-28T10:13:20.346Z,22.22
2019-04-28T10:14:20.331Z,22.18
2019-04-28T10:15:20.331Z,22.22
2019-04-28T10:16:20.303Z,22.17
2019-04-28T10:17:20.313Z,22.28
2019-04-28T10:18:20.300Z,22.20
2019-04-28T10:19:20.274Z,22.21
2019-04-28T10:20:20.270Z,22.27
2019-04-28T10:21:20.260Z,22.22
2019-04-28T10:22:20.268Z,22.22
2019-04-28T10:23:20.231Z,22.24
2019-04-28T10:24:20.217Z,22.28
2019-04-28T10:25:21.274Z,22.31
2019-04-28T10:26:21.030Z,22.30
2019-04-28T10:27:20.243Z,22.30
2019-04-28T10:28:20.177Z,22.37
2019-04-28T10:29:20.167Z,22.30
2019-04-28T10:30:20.155Z,22.35
2019-04-28T10:31:21.021Z,22.36
2019-04-28T10:32:20.163Z,22.36
2019-04-28T10:33:21.020Z,22.33
2019-04-28T10:34:21.020Z,22.40
2019-04-28T10:35:20.104Z,22.37
2019-04-28T10:36:20.093Z,22.39
2019-04-28T10:37:20.092Z,22.37
2019-04-28T10:38:20.076Z,22.27
2019-04-28T10:39:20.064Z,22.28
2019-04-28T10:40:20.050Z,22.37
2019-04-28T10:41:21.035Z,22.36
2019-04-28T10:42:20.046Z,22.36
2019-04-28T10:43:20.534Z,22.42
2019-04-28T10:44:20.012Z,22.43
2019-04-28T10:45:20.004Z,22.43
2019-04-28T10:46:19.984Z,22.43
2019-04-28T10:47:19.990Z,22.45
2019-04-28T10:48:19.961Z,22.46
2019-04-28T10:49:20.524Z,22.46
2019-04-28T10:50:19.960Z,22.43
2019-04-28T10:51:19.985Z,22.46
2019-04-28T10:52:19.936Z,22.46
2019-04-28T10:53:19.952Z,22.47
2019-04-28T10:54:20.541Z,22.46
2019-04-28T10:55:19.896Z,22.45
2019-04-28T10:56:19.885Z,22.52
2019-04-28T10:57:19.878Z,22.47
2019-04-28T10:58:19.857Z,22.51
2019-04-28T10:59:19.851Z,22.47
2019-04-28T11:00:19.835Z,22.40
2019-04-28T11:01:19.845Z,22.55
2019-04-28T11:02:19.857Z,22.52
2019-04-28T11:03:19.809Z,22.54
2019-04-28T11:04:19.794Z,22.52
2019-04-28T11:05:20.530Z,22.57
2019-04-28T11:06:19.785Z,22.52
2019-04-28T11:07:19.760Z,22.52
2019-04-28T11:08:19.789Z,22.51
2019-04-28T11:09:30.058Z,22.61
2019-04-28T11:10:19.732Z,22.55
2019-04-28T11:11:19.717Z,22.61
2019-04-28T11:12:20.539Z,22.61
2019-04-28T11:13:19.718Z,22.60
2019-04-28T11:14:19.688Z,22.60
2019-04-28T11:15:19.677Z,22.61
2019-04-28T11:16:19.670Z,22.61
2019-04-28T11:17:19.655Z,22.57
2019-04-28T11:18:20.063Z,22.61
2019-04-28T11:19:19.635Z,22.64
2019-04-28T11:20:19.628Z,22.64
2019-04-28T11:21:20.548Z,22.57
2019-04-28T11:22:20.551Z,22.64
2019-04-28T11:23:20.051Z,22.64
2019-04-28T11:24:20.565Z,22.64
2019-04-28T11:25:19.596Z,22.57
2019-04-28T11:26:19.562Z,22.67
2019-04-28T11:27:19.548Z,22.64
2019-04-28T11:28:19.561Z,22.61
2019-04-28T11:29:20.543Z,22.58
2019-04-28T11:30:19.527Z,22.64
2019-04-28T11:31:19.505Z,22.64
2019-04-28T11:32:19.495Z,22.65
2019-04-28T11:33:19.500Z,22.68
2019-04-28T11:34:19.473Z,22.60
2019-04-28T11:35:21.836Z,22.64
2019-04-28T11:36:19.466Z,22.60
2019-04-28T11:37:20.028Z,22.64
2019-04-28T11:38:19.447Z,22.60
2019-04-28T11:39:19.421Z,22.61
2019-04-28T11:40:19.411Z,22.73
2019-04-28T11:41:20.038Z,22.79
2019-04-28T11:42:20.035Z,22.68
2019-04-28T11:43:19.398Z,22.70
2019-04-28T11:44:20.041Z,22.72
2019-04-28T11:45:19.357Z,22.65
2019-04-28T11:46:19.365Z,22.70
2019-04-28T11:47:20.027Z,22.79
2019-04-28T11:48:19.389Z,22.76
2019-04-28T11:49:19.315Z,22.82
2019-04-28T11:50:20.023Z,22.83
2019-04-28T11:51:20.036Z,22.83
2019-04-28T11:52:20.028Z,22.82
2019-04-28T11:53:19.283Z,22.79
2019-04-28T11:54:19.261Z,22.80
2019-04-28T11:55:19.255Z,22.79
2019-04-28T11:56:19.241Z,22.90
2019-04-28T11:57:20.034Z,22.85
2019-04-28T11:58:19.571Z,22.94
2019-04-28T11:59:19.231Z,22.88
2019-04-28T12:00:19.210Z,22.92
2019-04-28T12:01:19.197Z,22.92
2019-04-28T12:02:19.180Z,22.95
2019-04-28T12:03:19.163Z,22.92
2019-04-28T12:04:19.221Z,22.97
2019-04-28T12:05:19.156Z,23.00
2019-04-28T12:06:20.027Z,23.05
2019-04-28T12:07:19.128Z,23.01
2019-04-28T12:08:19.113Z,23.07
2019-04-28T12:09:19.543Z,23.01
2019-04-28T12:10:19.100Z,23.04
2019-04-28T12:11:20.036Z,23.04
2019-04-28T12:12:19.081Z,23.10
2019-04-28T12:13:19.055Z,23.12
2019-04-28T12:14:19.060Z,23.04
2019-04-28T12:15:20.042Z,23.09
2019-04-28T12:16:19.032Z,23.07
2019-04-28T12:17:19.024Z,23.01
2019-04-28T12:18:19.000Z,23.15
2019-04-28T12:19:19.074Z,23.15
2019-04-28T12:20:19.529Z,23.13
2019-04-28T12:21:18.973Z,23.16
2019-04-28T12:22:18.971Z,23.17
2019-04-28T12:23:18.951Z,23.13
2019-04-28T12:24:18.961Z,23.19
2019-04-28T12:25:18.922Z,23.19
2019-04-28T12:26:19.530Z,23.20
2019-04-28T12:27:18.913Z,23.17
2019-04-28T12:28:19.536Z,23.17
2019-04-28T12:29:19.130Z,23.19
2019-04-28T12:30:18.873Z,23.19
2019-04-28T12:31:18.864Z,23.16
2019-04-28T12:32:19.530Z,23.23
2019-04-28T12:33:18.860Z,23.13
2019-04-28T12:34:19.043Z,23.19
2019-04-28T12:35:18.831Z,23.16
2019-04-28T12:36:18.807Z,23.28
2019-04-28T12:37:18.794Z,23.16
2019-04-28T12:38:19.530Z,23.15
2019-04-28T12:39:19.533Z,23.15
2019-04-28T12:40:18.794Z,23.22
2019-04-28T12:41:18.751Z,23.19
2019-04-28T12:42:18.741Z,23.23
2019-04-28T12:43:19.535Z,23.28
2019-04-28T12:44:18.747Z,23.19
2019-04-28T12:45:18.746Z,23.19
2019-04-28T12:46:18.696Z,23.17
2019-04-28T12:47:18.687Z,23.16
2019-04-28T12:48:18.676Z,23.16
2019-04-28T12:49:18.677Z,23.19
2019-04-28T12:50:18.686Z,23.15
2019-04-28T12:51:18.654Z,23.19
2019-04-28T12:52:18.632Z,23.20